sensor_id;sensor_type;location;lat;lon;timestamp;temperature;humidity
74171;DHT22;62526;50.948;6.590;2023-03-15T00:00:59;3.70;99.90
74171;DHT22;62526;50.948;6.590;2023-03-15T00:03:26;3.70;99.90
74171;DHT22;62526;50.948;6.590;2023-03-15T00:05:52;3.80;99.90
74171;DHT22;62526;50.948;6.590;2023-03-15T00:08:19;3.90;99.90
74171;DHT22;62526;50.948;6.590;2023-03-15T00:10:46;3.80;99.90
74171;DHT22;62526;50.948;6.590;2023-03-15T00:13:13;3.80;99.90
74171;DHT22;62526;50.948;6.590;2023-03-15T00:15:49;3.80;99.90
74171;DHT22;62526;50.948;6.590;2023-03-15T00:18:15;3.90;99.90
74171;DHT22;62526;50.948;6.590;2023-03-15T00:20:41;3.90;99.90
74171;DHT22;62526;50.948;6.590;2023-03-15T00:23:07;4.00;99.90
74171;DHT22;62526;50.948;6.590;2023-03-15T00:25:34;4.00;99.90
74171;DHT22;62526;50.948;6.590;2023-03-15T00:28:01;4.10;99.90
74171;DHT22;62526;50.948;6.590;2023-03-15T00:30:27;4.10;99.90
74171;DHT22;62526;50.948;6.590;2023-03-15T00:32:54;4.10;99.90
74171;DHT22;62526;50.948;6.590;2023-03-15T00:35:21;4.10;99.90
74171;DHT22;62526;50.948;6.590;2023-03-15T00:37:47;4.20;99.90
74171;DHT22;62526;50.948;6.590;2023-03-15T00:40:15;4.20;99.90
74171;DHT22;62526;50.948;6.590;2023-03-15T00:42:43;4.20;99.90
74171;DHT22;62526;50.948;6.590;2023-03-15T00:45:10;4.10;99.90
74171;DHT22;62526;50.948;6.590;2023-03-15T00:47:36;4.20;99.90
74171;DHT22;62526;50.948;6.590;2023-03-15T00:50:03;4.20;99.90
74171;DHT22;62526;50.948;6.590;2023-03-15T00:52:33;4.30;99.90
74171;DHT22;62526;50.948;6.590;2023-03-15T00:54:59;4.30;99.90
74171;DHT22;62526;50.948;6.590;2023-03-15T00:57:26;4.30;99.90
74171;DHT22;62526;50.948;6.590;2023-03-15T00:59:52;4.20;99.90
74171;DHT22;62526;50.948;6.590;2023-03-15T01:02:20;4.20;99.90
74171;DHT22;62526;50.948;6.590;2023-03-15T01:04:47;4.20;99.90
74171;DHT22;62526;50.948;6.590;2023-03-15T01:07:14;4.20;99.90
74171;DHT22;62526;50.948;6.590;2023-03-15T01:09:40;4.20;99.90
74171;DHT22;62526;50.948;6.590;2023-03-15T01:12:08;4.10;99.90
74171;DHT22;62526;50.948;6.590;2023-03-15T01:14:35;3.80;99.90
74171;DHT22;62526;50.948;6.590;2023-03-15T01:17:01;3.60;99.90
74171;DHT22;62526;50.948;6.590;2023-03-15T01:19:28;3.50;99.90
74171;DHT22;62526;50.948;6.590;2023-03-15T01:21:54;3.30;99.90
74171;DHT22;62526;50.948;6.590;2023-03-15T01:24:21;3.30;99.90
74171;DHT22;62526;50.948;6.590;2023-03-15T01:26:48;3.30;99.90
74171;DHT22;62526;50.948;6.590;2023-03-15T01:29:14;3.30;99.90
74171;DHT22;62526;50.948;6.590;2023-03-15T01:31:41;3.20;99.90
74171;DHT22;62526;50.948;6.590;2023-03-15T01:34:07;3.20;99.90
74171;DHT22;62526;50.948;6.590;2023-03-15T01:36:34;3.20;99.90
74171;DHT22;62526;50.948;6.590;2023-03-15T01:39:01;3.30;99.90
74171;DHT22;62526;50.948;6.590;2023-03-15T01:41:28;3.20;99.90
74171;DHT22;62526;50.948;6.590;2023-03-15T01:43:55;3.20;99.90
74171;DHT22;62526;50.948;6.590;2023-03-15T01:46:26;3.00;99.90
74171;DHT22;62526;50.948;6.590;2023-03-15T01:49:17;2.90;99.90
74171;DHT22;62526;50.948;6.590;2023-03-15T01:51:56;2.90;99.90
74171;DHT22;62526;50.948;6.590;2023-03-15T01:54:26;2.80;99.90
74171;DHT22;62526;50.948;6.590;2023-03-15T01:56:57;2.60;99.90
74171;DHT22;62526;50.948;6.590;2023-03-15T01:59:28;2.30;99.90
74171;DHT22;62526;50.948;6.590;2023-03-15T02:01:53;2.10;99.90
74171;DHT22;62526;50.948;6.590;2023-03-15T02:04:22;2.10;99.90
74171;DHT22;62526;50.948;6.590;2023-03-15T02:06:47;1.90;99.90
74171;DHT22;62526;50.948;6.590;2023-03-15T02:09:26;1.90;99.90
74171;DHT22;62526;50.948;6.590;2023-03-15T02:15:00;1.90;99.90
74171;DHT22;62526;50.948;6.590;2023-03-15T02:17:40;1.90;99.90
74171;DHT22;62526;50.948;6.590;2023-03-15T02:20:16;2.00;99.90
74171;DHT22;62526;50.948;6.590;2023-03-15T02:25:27;2.00;99.90
74171;DHT22;62526;50.948;6.590;2023-03-15T02:27:51;2.00;99.90
74171;DHT22;62526;50.948;6.590;2023-03-15T02:30:18;2.10;99.90
74171;DHT22;62526;50.948;6.590;2023-03-15T02:32:44;2.10;99.90
74171;DHT22;62526;50.948;6.590;2023-03-15T02:35:11;2.20;99.90
74171;DHT22;62526;50.948;6.590;2023-03-15T02:37:37;2.30;99.90
74171;DHT22;62526;50.948;6.590;2023-03-15T02:40:10;2.30;99.90
74171;DHT22;62526;50.948;6.590;2023-03-15T02:42:31;2.40;99.90
74171;DHT22;62526;50.948;6.590;2023-03-15T02:44:58;2.40;99.90
74171;DHT22;62526;50.948;6.590;2023-03-15T02:47:26;2.50;99.90
74171;DHT22;62526;50.948;6.590;2023-03-15T02:49:51;2.60;99.90
74171;DHT22;62526;50.948;6.590;2023-03-15T02:52:18;2.60;99.90
74171;DHT22;62526;50.948;6.590;2023-03-15T02:54:45;2.60;99.90
74171;DHT22;62526;50.948;6.590;2023-03-15T02:57:12;2.60;99.90
74171;DHT22;62526;50.948;6.590;2023-03-15T02:59:38;2.60;99.90
74171;DHT22;62526;50.948;6.590;2023-03-15T03:02:04;2.60;99.90
74171;DHT22;62526;50.948;6.590;2023-03-15T03:04:31;2.60;99.90
74171;DHT22;62526;50.948;6.590;2023-03-15T03:06:58;2.50;99.90
74171;DHT22;62526;50.948;6.590;2023-03-15T03:09:25;2.30;99.90
74171;DHT22;62526;50.948;6.590;2023-03-15T03:11:52;2.20;99.90
74171;DHT22;62526;50.948;6.590;2023-03-15T03:14:18;2.20;99.90
74171;DHT22;62526;50.948;6.590;2023-03-15T03:16:45;2.20;99.90
74171;DHT22;62526;50.948;6.590;2023-03-15T03:19:11;2.30;99.90
74171;DHT22;62526;50.948;6.590;2023-03-15T03:21:38;2.40;99.90
74171;DHT22;62526;50.948;6.590;2023-03-15T03:24:11;2.50;99.90
74171;DHT22;62526;50.948;6.590;2023-03-15T03:26:43;2.40;99.90
74171;DHT22;62526;50.948;6.590;2023-03-15T03:32:09;2.60;99.90
74171;DHT22;62526;50.948;6.590;2023-03-15T04:21:42;2.80;99.90
74171;DHT22;62526;50.948;6.590;2023-03-15T04:24:11;2.70;99.90
74171;DHT22;62526;50.948;6.590;2023-03-15T04:26:51;2.50;99.90
74171;DHT22;62526;50.948;6.590;2023-03-15T04:29:25;2.40;99.90
74171;DHT22;62526;50.948;6.590;2023-03-15T04:31:52;2.30;99.90
74171;DHT22;62526;50.948;6.590;2023-03-15T04:34:22;2.30;99.90
74171;DHT22;62526;50.948;6.590;2023-03-15T04:36:50;2.20;99.90
74171;DHT22;62526;50.948;6.590;2023-03-15T04:39:16;2.20;99.90
74171;DHT22;62526;50.948;6.590;2023-03-15T04:41:44;2.10;99.90
74171;DHT22;62526;50.948;6.590;2023-03-15T04:46:52;2.20;99.90
74171;DHT22;62526;50.948;6.590;2023-03-15T04:49:35;2.30;99.90
74171;DHT22;62526;50.948;6.590;2023-03-15T04:52:20;2.30;99.90
74171;DHT22;62526;50.948;6.590;2023-03-15T04:54:47;2.40;99.90
74171;DHT22;62526;50.948;6.590;2023-03-15T04:57:14;2.30;99.90
74171;DHT22;62526;50.948;6.590;2023-03-15T05:02:26;2.30;99.90
74171;DHT22;62526;50.948;6.590;2023-03-15T05:13:11;2.10;99.90
74171;DHT22;62526;50.948;6.590;2023-03-15T05:15:42;2.10;99.90
74171;DHT22;62526;50.948;6.590;2023-03-15T05:18:08;2.10;99.90
74171;DHT22;62526;50.948;6.590;2023-03-15T05:20:35;2.10;99.90
74171;DHT22;62526;50.948;6.590;2023-03-15T05:23:07;2.10;99.90
74171;DHT22;62526;50.948;6.590;2023-03-15T05:25:36;2.20;99.90
74171;DHT22;62526;50.948;6.590;2023-03-15T05:28:03;2.20;99.90
74171;DHT22;62526;50.948;6.590;2023-03-15T05:30:30;2.20;99.90
74171;DHT22;62526;50.948;6.590;2023-03-15T05:32:56;2.30;99.90
74171;DHT22;62526;50.948;6.590;2023-03-15T05:35:27;2.40;99.90
74171;DHT22;62526;50.948;6.590;2023-03-15T05:37:54;2.40;99.90
74171;DHT22;62526;50.948;6.590;2023-03-15T05:40:28;2.40;99.90
74171;DHT22;62526;50.948;6.590;2023-03-15T05:43:03;2.40;99.90
74171;DHT22;62526;50.948;6.590;2023-03-15T05:45:35;2.50;99.90
74171;DHT22;62526;50.948;6.590;2023-03-15T05:48:04;2.50;99.90
74171;DHT22;62526;50.948;6.590;2023-03-15T05:53:18;2.60;99.90
74171;DHT22;62526;50.948;6.590;2023-03-15T05:55:46;2.60;99.90
74171;DHT22;62526;50.948;6.590;2023-03-15T05:58:17;2.60;99.90
74171;DHT22;62526;50.948;6.590;2023-03-15T06:00:44;2.50;99.90
74171;DHT22;62526;50.948;6.590;2023-03-15T06:03:10;2.40;99.90
74171;DHT22;62526;50.948;6.590;2023-03-15T06:05:43;2.40;99.90
74171;DHT22;62526;50.948;6.590;2023-03-15T06:11:06;2.50;99.90
74171;DHT22;62526;50.948;6.590;2023-03-15T06:13:39;2.50;99.90
74171;DHT22;62526;50.948;6.590;2023-03-15T06:16:07;2.60;99.90
74171;DHT22;62526;50.948;6.590;2023-03-15T06:18:37;2.70;99.90
74171;DHT22;62526;50.948;6.590;2023-03-15T06:23:51;2.90;99.90
74171;DHT22;62526;50.948;6.590;2023-03-15T06:26:24;2.90;99.90
74171;DHT22;62526;50.948;6.590;2023-03-15T06:28:50;2.90;99.90
74171;DHT22;62526;50.948;6.590;2023-03-15T06:31:18;3.00;99.90
74171;DHT22;62526;50.948;6.590;2023-03-15T06:33:51;3.00;99.90
74171;DHT22;62526;50.948;6.590;2023-03-15T06:36:17;3.00;99.90
74171;DHT22;62526;50.948;6.590;2023-03-15T06:38:44;2.90;99.90
74171;DHT22;62526;50.948;6.590;2023-03-15T06:41:11;2.90;99.90
74171;DHT22;62526;50.948;6.590;2023-03-15T06:43:37;2.90;99.90
74171;DHT22;62526;50.948;6.590;2023-03-15T06:46:04;2.90;99.90
74171;DHT22;62526;50.948;6.590;2023-03-15T06:48:31;2.80;99.90
74171;DHT22;62526;50.948;6.590;2023-03-15T06:50:58;2.90;99.90
74171;DHT22;62526;50.948;6.590;2023-03-15T06:53:24;3.00;99.90
74171;DHT22;62526;50.948;6.590;2023-03-15T06:55:51;3.00;99.90
74171;DHT22;62526;50.948;6.590;2023-03-15T06:58:18;3.10;99.90
74171;DHT22;62526;50.948;6.590;2023-03-15T07:00:44;3.10;99.90
74171;DHT22;62526;50.948;6.590;2023-03-15T07:03:11;3.20;99.90
74171;DHT22;62526;50.948;6.590;2023-03-15T07:05:38;3.20;99.90
74171;DHT22;62526;50.948;6.590;2023-03-15T07:08:05;3.20;99.90
74171;DHT22;62526;50.948;6.590;2023-03-15T07:10:32;3.30;99.90
74171;DHT22;62526;50.948;6.590;2023-03-15T07:15:55;3.30;99.90
74171;DHT22;62526;50.948;6.590;2023-03-15T07:18:22;3.40;99.90
74171;DHT22;62526;50.948;6.590;2023-03-15T07:20:56;3.40;99.90
74171;DHT22;62526;50.948;6.590;2023-03-15T07:23:23;3.40;99.90
74171;DHT22;62526;50.948;6.590;2023-03-15T07:25:49;3.50;99.90
74171;DHT22;62526;50.948;6.590;2023-03-15T07:28:16;3.50;99.90
74171;DHT22;62526;50.948;6.590;2023-03-15T07:30:50;3.60;99.90
74171;DHT22;62526;50.948;6.590;2023-03-15T07:33:10;3.60;99.90
74171;DHT22;62526;50.948;6.590;2023-03-15T07:35:37;3.50;99.90
74171;DHT22;62526;50.948;6.590;2023-03-15T07:38:04;3.70;99.90
74171;DHT22;62526;50.948;6.590;2023-03-15T07:40:32;4.00;99.90
74171;DHT22;62526;50.948;6.590;2023-03-15T07:42:59;4.10;99.90
74171;DHT22;62526;50.948;6.590;2023-03-15T07:45:26;4.10;99.90
74171;DHT22;62526;50.948;6.590;2023-03-15T07:47:52;4.20;99.90
74171;DHT22;62526;50.948;6.590;2023-03-15T07:50:19;4.20;99.90
74171;DHT22;62526;50.948;6.590;2023-03-15T07:52:46;4.20;99.90
74171;DHT22;62526;50.948;6.590;2023-03-15T07:55:12;4.20;99.90
74171;DHT22;62526;50.948;6.590;2023-03-15T07:57:39;4.20;99.90
74171;DHT22;62526;50.948;6.590;2023-03-15T08:00:08;4.10;99.90
74171;DHT22;62526;50.948;6.590;2023-03-15T08:02:36;4.10;99.90
74171;DHT22;62526;50.948;6.590;2023-03-15T08:05:04;4.20;99.90
74171;DHT22;62526;50.948;6.590;2023-03-15T08:07:31;4.20;99.90
74171;DHT22;62526;50.948;6.590;2023-03-15T08:09:57;4.20;99.90
74171;DHT22;62526;50.948;6.590;2023-03-15T08:12:25;4.30;99.90
74171;DHT22;62526;50.948;6.590;2023-03-15T08:14:52;4.30;99.90
74171;DHT22;62526;50.948;6.590;2023-03-15T08:17:18;4.40;99.90
74171;DHT22;62526;50.948;6.590;2023-03-15T08:19:45;4.30;99.90
74171;DHT22;62526;50.948;6.590;2023-03-15T08:22:12;4.30;99.90
74171;DHT22;62526;50.948;6.590;2023-03-15T08:24:40;4.40;99.90
74171;DHT22;62526;50.948;6.590;2023-03-15T08:27:07;4.50;99.90
74171;DHT22;62526;50.948;6.590;2023-03-15T08:29:34;4.60;99.90
74171;DHT22;62526;50.948;6.590;2023-03-15T08:32:01;4.50;99.90
74171;DHT22;62526;50.948;6.590;2023-03-15T08:34:32;4.30;99.90
74171;DHT22;62526;50.948;6.590;2023-03-15T08:36:58;4.60;99.90
74171;DHT22;62526;50.948;6.590;2023-03-15T08:39:24;4.70;99.90
74171;DHT22;62526;50.948;6.590;2023-03-15T08:41:52;4.90;99.90
74171;DHT22;62526;50.948;6.590;2023-03-15T08:44:19;4.90;99.90
74171;DHT22;62526;50.948;6.590;2023-03-15T08:46:46;5.00;99.90
74171;DHT22;62526;50.948;6.590;2023-03-15T08:49:12;5.10;99.90
74171;DHT22;62526;50.948;6.590;2023-03-15T08:51:39;5.20;99.90
74171;DHT22;62526;50.948;6.590;2023-03-15T08:54:06;5.30;99.90
74171;DHT22;62526;50.948;6.590;2023-03-15T08:56:33;5.30;99.90
74171;DHT22;62526;50.948;6.590;2023-03-15T08:59:00;5.30;99.90
74171;DHT22;62526;50.948;6.590;2023-03-15T09:01:27;5.20;99.90
74171;DHT22;62526;50.948;6.590;2023-03-15T09:03:53;5.10;99.90
74171;DHT22;62526;50.948;6.590;2023-03-15T09:06:21;5.10;99.90
74171;DHT22;62526;50.948;6.590;2023-03-15T09:08:48;5.20;99.90
74171;DHT22;62526;50.948;6.590;2023-03-15T09:11:14;5.20;99.90
74171;DHT22;62526;50.948;6.590;2023-03-15T09:13:41;5.30;99.90
74171;DHT22;62526;50.948;6.590;2023-03-15T09:16:07;5.20;99.90
74171;DHT22;62526;50.948;6.590;2023-03-15T09:18:34;5.30;99.90
74171;DHT22;62526;50.948;6.590;2023-03-15T09:21:01;5.40;99.90
74171;DHT22;62526;50.948;6.590;2023-03-15T09:23:28;5.50;99.90
74171;DHT22;62526;50.948;6.590;2023-03-15T09:25:54;5.50;99.90
74171;DHT22;62526;50.948;6.590;2023-03-15T09:28:21;5.50;99.90
74171;DHT22;62526;50.948;6.590;2023-03-15T09:30:48;5.60;99.90
74171;DHT22;62526;50.948;6.590;2023-03-15T09:33:14;5.60;99.90
74171;DHT22;62526;50.948;6.590;2023-03-15T09:35:41;5.70;99.90
74171;DHT22;62526;50.948;6.590;2023-03-15T09:38:09;5.80;99.90
74171;DHT22;62526;50.948;6.590;2023-03-15T09:40:39;5.90;99.90
74171;DHT22;62526;50.948;6.590;2023-03-15T09:46:09;5.80;99.90
74171;DHT22;62526;50.948;6.590;2023-03-15T09:48:48;5.70;99.90
74171;DHT22;62526;50.948;6.590;2023-03-15T09:51:15;5.70;99.90
74171;DHT22;62526;50.948;6.590;2023-03-15T09:53:49;5.70;99.90
74171;DHT22;62526;50.948;6.590;2023-03-15T09:56:19;5.80;99.90
74171;DHT22;62526;50.948;6.590;2023-03-15T09:58:44;5.90;99.90
74171;DHT22;62526;50.948;6.590;2023-03-15T10:01:12;5.80;99.90
74171;DHT22;62526;50.948;6.590;2023-03-15T10:03:53;5.80;99.90
74171;DHT22;62526;50.948;6.590;2023-03-15T10:06:20;5.60;99.90
74171;DHT22;62526;50.948;6.590;2023-03-15T10:08:47;5.50;99.90
74171;DHT22;62526;50.948;6.590;2023-03-15T10:14:25;5.50;99.90
74171;DHT22;62526;50.948;6.590;2023-03-15T10:16:51;5.50;99.90
74171;DHT22;62526;50.948;6.590;2023-03-15T10:19:36;5.70;99.90
74171;DHT22;62526;50.948;6.590;2023-03-15T10:22:10;5.80;99.90
74171;DHT22;62526;50.948;6.590;2023-03-15T10:24:36;5.90;99.90
74171;DHT22;62526;50.948;6.590;2023-03-15T10:27:20;6.00;99.90
74171;DHT22;62526;50.948;6.590;2023-03-15T10:29:47;5.90;99.90
74171;DHT22;62526;50.948;6.590;2023-03-15T10:32:14;6.10;99.90
74171;DHT22;62526;50.948;6.590;2023-03-15T10:34:40;6.30;99.90
74171;DHT22;62526;50.948;6.590;2023-03-15T10:37:07;6.40;99.90
74171;DHT22;62526;50.948;6.590;2023-03-15T10:39:35;6.60;99.90
74171;DHT22;62526;50.948;6.590;2023-03-15T10:42:01;6.80;99.90
74171;DHT22;62526;50.948;6.590;2023-03-15T10:44:29;6.90;99.90
74171;DHT22;62526;50.948;6.590;2023-03-15T10:47:03;7.40;99.90
74171;DHT22;62526;50.948;6.590;2023-03-15T10:49:34;7.10;99.90
74171;DHT22;62526;50.948;6.590;2023-03-15T10:52:00;7.30;99.90
74171;DHT22;62526;50.948;6.590;2023-03-15T10:54:26;7.40;99.90
74171;DHT22;62526;50.948;6.590;2023-03-15T10:57:12;7.60;99.90
74171;DHT22;62526;50.948;6.590;2023-03-15T10:59:38;7.80;99.90
74171;DHT22;62526;50.948;6.590;2023-03-15T11:02:19;8.00;99.90
74171;DHT22;62526;50.948;6.590;2023-03-15T11:05:13;8.10;99.90
74171;DHT22;62526;50.948;6.590;2023-03-15T11:07:33;8.10;99.90
74171;DHT22;62526;50.948;6.590;2023-03-15T11:09:59;8.30;99.90
74171;DHT22;62526;50.948;6.590;2023-03-15T11:12:26;8.50;99.90
74171;DHT22;62526;50.948;6.590;2023-03-15T11:14:56;8.60;99.90
74171;DHT22;62526;50.948;6.590;2023-03-15T11:17:20;8.70;99.90
74171;DHT22;62526;50.948;6.590;2023-03-15T11:19:53;8.70;99.90
74171;DHT22;62526;50.948;6.590;2023-03-15T11:22:17;8.90;99.90
74171;DHT22;62526;50.948;6.590;2023-03-15T11:24:44;8.60;99.90
74171;DHT22;62526;50.948;6.590;2023-03-15T11:27:14;8.70;99.90
74171;DHT22;62526;50.948;6.590;2023-03-15T11:29:42;8.90;99.90
74171;DHT22;62526;50.948;6.590;2023-03-15T11:32:16;9.00;99.90
74171;DHT22;62526;50.948;6.590;2023-03-15T11:37:30;9.20;99.90
74171;DHT22;62526;50.948;6.590;2023-03-15T11:40:02;9.20;99.90
74171;DHT22;62526;50.948;6.590;2023-03-15T11:42:32;9.10;99.90
74171;DHT22;62526;50.948;6.590;2023-03-15T11:45:00;9.20;99.90
74171;DHT22;62526;50.948;6.590;2023-03-15T11:47:39;9.50;99.90
74171;DHT22;62526;50.948;6.590;2023-03-15T11:50:03;9.60;99.90
74171;DHT22;62526;50.948;6.590;2023-03-15T11:52:30;9.90;99.90
74171;DHT22;62526;50.948;6.590;2023-03-15T11:54:58;10.10;99.90
74171;DHT22;62526;50.948;6.590;2023-03-15T11:57:44;10.20;99.90
74171;DHT22;62526;50.948;6.590;2023-03-15T12:00:49;10.40;99.90
74171;DHT22;62526;50.948;6.590;2023-03-15T12:05:47;10.40;94.90
74171;DHT22;62526;50.948;6.590;2023-03-15T12:08:19;10.20;95.80
74171;DHT22;62526;50.948;6.590;2023-03-15T12:10:45;10.20;89.30
74171;DHT22;62526;50.948;6.590;2023-03-15T12:13:18;10.30;91.90
74171;DHT22;62526;50.948;6.590;2023-03-15T12:15:46;10.40;93.60
74171;DHT22;62526;50.948;6.590;2023-03-15T12:18:13;10.40;92.30
74171;DHT22;62526;50.948;6.590;2023-03-15T12:20:40;10.50;93.90
74171;DHT22;62526;50.948;6.590;2023-03-15T12:23:28;10.60;83.20
74171;DHT22;62526;50.948;6.590;2023-03-15T12:25:54;10.80;82.00
74171;DHT22;62526;50.948;6.590;2023-03-15T12:28:24;10.60;77.20
74171;DHT22;62526;50.948;6.590;2023-03-15T12:30:52;10.90;64.90
74171;DHT22;62526;50.948;6.590;2023-03-15T12:33:18;10.90;61.10
74171;DHT22;62526;50.948;6.590;2023-03-15T12:35:44;11.30;60.70
74171;DHT22;62526;50.948;6.590;2023-03-15T12:38:21;11.60;58.10
74171;DHT22;62526;50.948;6.590;2023-03-15T12:40:52;12.00;56.50
74171;DHT22;62526;50.948;6.590;2023-03-15T12:45:56;12.20;55.50
74171;DHT22;62526;50.948;6.590;2023-03-15T12:48:24;12.00;55.30
74171;DHT22;62526;50.948;6.590;2023-03-15T12:50:52;12.20;55.20
74171;DHT22;62526;50.948;6.590;2023-03-15T12:55:58;11.90;50.80
74171;DHT22;62526;50.948;6.590;2023-03-15T12:58:26;11.90;50.00
74171;DHT22;62526;50.948;6.590;2023-03-15T13:00:52;11.80;51.30
74171;DHT22;62526;50.948;6.590;2023-03-15T13:03:21;12.10;51.60
74171;DHT22;62526;50.948;6.590;2023-03-15T13:08:40;13.20;47.00
74171;DHT22;62526;50.948;6.590;2023-03-15T13:11:26;13.60;45.50
74171;DHT22;62526;50.948;6.590;2023-03-15T13:14:01;14.10;44.40
74171;DHT22;62526;50.948;6.590;2023-03-15T13:17:02;14.30;41.80
74171;DHT22;62526;50.948;6.590;2023-03-15T13:19:15;15.40;43.50
74171;DHT22;62526;50.948;6.590;2023-03-15T13:22:10;16.30;41.10
74171;DHT22;62526;50.948;6.590;2023-03-15T13:24:39;17.10;41.40
74171;DHT22;62526;50.948;6.590;2023-03-15T13:27:24;17.00;36.30
74171;DHT22;62526;50.948;6.590;2023-03-15T13:29:38;17.80;37.00
74171;DHT22;62526;50.948;6.590;2023-03-15T13:32:12;18.30;37.70
74171;DHT22;62526;50.948;6.590;2023-03-15T13:34:37;18.60;34.90
74171;DHT22;62526;50.948;6.590;2023-03-15T13:37:09;18.60;34.40
74171;DHT22;62526;50.948;6.590;2023-03-15T13:39:31;18.70;33.60
74171;DHT22;62526;50.948;6.590;2023-03-15T13:41:58;18.70;33.40
74171;DHT22;62526;50.948;6.590;2023-03-15T13:44:25;18.40;33.40
74171;DHT22;62526;50.948;6.590;2023-03-15T13:46:51;18.80;33.20
74171;DHT22;62526;50.948;6.590;2023-03-15T13:49:18;19.20;32.90
74171;DHT22;62526;50.948;6.590;2023-03-15T13:51:44;18.50;33.80
74171;DHT22;62526;50.948;6.590;2023-03-15T13:54:20;17.20;35.00
74171;DHT22;62526;50.948;6.590;2023-03-15T13:56:54;18.90;33.70
74171;DHT22;62526;50.948;6.590;2023-03-15T13:59:19;18.90;33.70
74171;DHT22;62526;50.948;6.590;2023-03-15T14:01:45;17.50;33.60
74171;DHT22;62526;50.948;6.590;2023-03-15T14:04:15;17.40;35.80
74171;DHT22;62526;50.948;6.590;2023-03-15T14:06:41;17.50;36.50
74171;DHT22;62526;50.948;6.590;2023-03-15T14:09:10;17.90;34.90
74171;DHT22;62526;50.948;6.590;2023-03-15T14:11:36;17.70;34.30
74171;DHT22;62526;50.948;6.590;2023-03-15T14:14:13;17.90;34.30
74171;DHT22;62526;50.948;6.590;2023-03-15T14:16:31;17.90;34.50
74171;DHT22;62526;50.948;6.590;2023-03-15T14:18:55;18.40;35.20
74171;DHT22;62526;50.948;6.590;2023-03-15T14:21:27;18.00;35.30
74171;DHT22;62526;50.948;6.590;2023-03-15T14:23:49;18.70;34.60
74171;DHT22;62526;50.948;6.590;2023-03-15T14:26:26;18.40;35.20
74171;DHT22;62526;50.948;6.590;2023-03-15T14:28:57;18.30;35.70
74171;DHT22;62526;50.948;6.590;2023-03-15T14:31:25;18.30;37.60
74171;DHT22;62526;50.948;6.590;2023-03-15T14:34:04;18.70;35.90
74171;DHT22;62526;50.948;6.590;2023-03-15T14:36:31;18.40;34.70
74171;DHT22;62526;50.948;6.590;2023-03-15T14:38:56;18.30;34.60
74171;DHT22;62526;50.948;6.590;2023-03-15T14:41:28;18.20;34.40
74171;DHT22;62526;50.948;6.590;2023-03-15T14:43:50;17.80;32.10
74171;DHT22;62526;50.948;6.590;2023-03-15T14:46:17;18.00;32.60
74171;DHT22;62526;50.948;6.590;2023-03-15T14:48:43;17.80;33.50
74171;DHT22;62526;50.948;6.590;2023-03-15T14:51:13;18.00;34.10
74171;DHT22;62526;50.948;6.590;2023-03-15T14:53:39;17.80;33.60
74171;DHT22;62526;50.948;6.590;2023-03-15T14:56:06;17.40;33.70
74171;DHT22;62526;50.948;6.590;2023-03-15T14:58:33;17.80;33.60
74171;DHT22;62526;50.948;6.590;2023-03-15T15:01:00;18.40;33.20
74171;DHT22;62526;50.948;6.590;2023-03-15T15:03:30;18.60;33.40
74171;DHT22;62526;50.948;6.590;2023-03-15T15:05:55;18.60;32.20
74171;DHT22;62526;50.948;6.590;2023-03-15T15:08:21;18.40;32.20
74171;DHT22;62526;50.948;6.590;2023-03-15T15:10:50;17.70;30.00
74171;DHT22;62526;50.948;6.590;2023-03-15T15:13:18;17.70;30.50
74171;DHT22;62526;50.948;6.590;2023-03-15T15:15:44;17.60;29.70
74171;DHT22;62526;50.948;6.590;2023-03-15T15:18:10;17.60;30.00
74171;DHT22;62526;50.948;6.590;2023-03-15T15:20:38;18.00;31.30
74171;DHT22;62526;50.948;6.590;2023-03-15T15:23:07;17.90;31.10
74171;DHT22;62526;50.948;6.590;2023-03-15T15:25:32;18.30;30.90
74171;DHT22;62526;50.948;6.590;2023-03-15T15:27:59;18.70;30.20
74171;DHT22;62526;50.948;6.590;2023-03-15T15:30:25;19.10;29.60
74171;DHT22;62526;50.948;6.590;2023-03-15T15:32:53;19.30;29.90
74171;DHT22;62526;50.948;6.590;2023-03-15T15:35:19;19.20;30.00
74171;DHT22;62526;50.948;6.590;2023-03-15T15:37:47;19.00;31.10
74171;DHT22;62526;50.948;6.590;2023-03-15T15:40:15;18.90;31.30
74171;DHT22;62526;50.948;6.590;2023-03-15T15:42:41;18.70;33.20
74171;DHT22;62526;50.948;6.590;2023-03-15T15:45:10;18.50;33.90
74171;DHT22;62526;50.948;6.590;2023-03-15T15:47:37;18.00;35.80
74171;DHT22;62526;50.948;6.590;2023-03-15T15:50:04;18.00;35.70
74171;DHT22;62526;50.948;6.590;2023-03-15T15:52:31;17.40;34.70
74171;DHT22;62526;50.948;6.590;2023-03-15T15:54:59;17.00;34.30
74171;DHT22;62526;50.948;6.590;2023-03-15T15:57:27;16.80;33.10
74171;DHT22;62526;50.948;6.590;2023-03-15T15:59:54;16.70;33.70
74171;DHT22;62526;50.948;6.590;2023-03-15T16:02:20;16.40;35.60
74171;DHT22;62526;50.948;6.590;2023-03-15T16:04:47;16.10;34.90
74171;DHT22;62526;50.948;6.590;2023-03-15T16:07:14;15.80;34.90
74171;DHT22;62526;50.948;6.590;2023-03-15T16:09:41;15.60;36.30
74171;DHT22;62526;50.948;6.590;2023-03-15T16:12:12;15.30;36.80
74171;DHT22;62526;50.948;6.590;2023-03-15T16:14:39;15.00;37.10
74171;DHT22;62526;50.948;6.590;2023-03-15T16:17:11;15.00;37.10
74171;DHT22;62526;50.948;6.590;2023-03-15T16:19:37;14.80;38.20
74171;DHT22;62526;50.948;6.590;2023-03-15T16:22:03;14.50;38.60
74171;DHT22;62526;50.948;6.590;2023-03-15T16:24:30;14.30;39.10
74171;DHT22;62526;50.948;6.590;2023-03-15T16:27:00;14.10;39.10
74171;DHT22;62526;50.948;6.590;2023-03-15T16:29:28;13.90;40.10
74171;DHT22;62526;50.948;6.590;2023-03-15T16:31:53;13.60;40.90
74171;DHT22;62526;50.948;6.590;2023-03-15T16:34:19;13.40;42.00
74171;DHT22;62526;50.948;6.590;2023-03-15T16:36:46;13.20;43.20
74171;DHT22;62526;50.948;6.590;2023-03-15T16:39:13;13.00;43.70
74171;DHT22;62526;50.948;6.590;2023-03-15T16:41:39;12.80;44.00
74171;DHT22;62526;50.948;6.590;2023-03-15T16:44:11;12.70;43.40
74171;DHT22;62526;50.948;6.590;2023-03-15T16:46:40;12.50;43.30
74171;DHT22;62526;50.948;6.590;2023-03-15T16:49:07;12.30;43.30
74171;DHT22;62526;50.948;6.590;2023-03-15T16:51:34;12.10;45.20
74171;DHT22;62526;50.948;6.590;2023-03-15T16:54:01;11.80;47.90
74171;DHT22;62526;50.948;6.590;2023-03-15T16:56:28;11.60;47.80
74171;DHT22;62526;50.948;6.590;2023-03-15T16:58:55;11.40;48.90
74171;DHT22;62526;50.948;6.590;2023-03-15T17:01:23;10.90;56.10
74171;DHT22;62526;50.948;6.590;2023-03-15T17:03:51;10.90;56.10
74171;DHT22;62526;50.948;6.590;2023-03-15T17:06:18;10.70;61.50
74171;DHT22;62526;50.948;6.590;2023-03-15T17:08:45;10.60;64.60
74171;DHT22;62526;50.948;6.590;2023-03-15T17:11:11;10.40;68.10
74171;DHT22;62526;50.948;6.590;2023-03-15T17:13:38;10.30;71.10
74171;DHT22;62526;50.948;6.590;2023-03-15T17:16:09;10.20;85.60
74171;DHT22;62526;50.948;6.590;2023-03-15T17:18:36;10.00;92.30
74171;DHT22;62526;50.948;6.590;2023-03-15T17:21:02;9.80;96.40
74171;DHT22;62526;50.948;6.590;2023-03-15T17:23:29;9.50;99.90
74171;DHT22;62526;50.948;6.590;2023-03-15T17:25:55;9.40;99.90
74171;DHT22;62526;50.948;6.590;2023-03-15T17:28:22;9.20;99.90